Time;durP1;ratioP1;P1;durP2;ratioP2;P2;SDS_P1;SDS_P2;PMS_P1;PMS_P2;Temp;Humidity;BMP_temperature;BMP_pressure;BME280_temperature;BME280_humidity;BME280_pressure;Samples;Min_cycle;Max_cycle;Signal;HPM_P1;HPM_P2
2020/12/25 00:01:10;;;;;;;13.50;11.40;;;8.50;96.50;;;;;;5072423;28;20723;-50
2020/12/25 00:03:37;;;;;;;14.53;9.87;;;8.50;96.20;;;;;;5071856;28;20689;-50
2020/12/25 00:06:04;;;;;;;13.17;9.50;;;8.50;96.40;;;;;;5072336;28;21257;-50
2020/12/25 00:08:31;;;;;;;11.17;8.93;;;8.60;96.40;;;;;;5071975;28;21293;-50
2020/12/25 00:10:58;;;;;;;11.60;9.63;;;8.60;96.20;;;;;;5071862;28;20631;-50
2020/12/25 00:13:25;;;;;;;15.57;9.87;;;8.50;95.80;;;;;;5072432;28;20653;-50
2020/12/25 00:15:52;;;;;;;10.33;9.37;;;8.50;96.00;;;;;;5072049;28;20633;-50
2020/12/25 00:18:18;;;;;;;8.40;7.10;;;8.50;95.90;;;;;;5071572;28;20677;-51
2020/12/25 00:20:47;;;;;;;8.27;7.47;;;8.50;95.80;;;;;;5072041;28;20658;-50
2020/12/25 00:23:14;;;;;;;8.20;7.00;;;8.50;95.80;;;;;;5071802;28;20673;-51
2020/12/25 00:25:40;;;;;;;7.40;6.23;;;8.50;95.80;;;;;;5071917;28;20984;-50
2020/12/25 00:28:08;;;;;;;7.33;6.33;;;8.50;95.40;;;;;;5071884;28;20649;-51
2020/12/25 00:30:35;;;;;;;8.27;6.40;;;8.50;95.60;;;;;;5071635;28;20644;-50
2020/12/25 00:33:02;;;;;;;9.40;8.17;;;8.60;95.50;;;;;;5071865;28;20621;-51
2020/12/25 00:35:28;;;;;;;7.93;6.87;;;8.70;95.50;;;;;;5071821;28;20629;-50
2020/12/25 00:37:55;;;;;;;9.57;7.37;;;8.70;95.50;;;;;;5071261;28;20673;-50
2020/12/25 00:40:22;;;;;;;7.37;6.67;;;8.70;95.60;;;;;;5071631;28;20640;-50
2020/12/25 00:42:49;;;;;;;9.67;7.20;;;8.80;95.60;;;;;;5071464;28;20690;-50
2020/12/25 00:45:16;;;;;;;12.67;8.67;;;8.80;95.70;;;;;;5070468;28;20659;-50
2020/12/25 00:47:43;;;;;;;9.00;7.80;;;8.80;95.70;;;;;;5071214;28;20714;-50
2020/12/25 00:50:10;;;;;;;8.30;6.70;;;8.80;95.60;;;;;;5071175;28;20612;-50
2020/12/25 00:52:37;;;;;;;7.87;5.83;;;8.90;95.40;;;;;;5071600;28;20617;-50
2020/12/25 00:55:03;;;;;;;8.67;6.90;;;8.80;95.20;;;;;;5071058;28;20678;-50
2020/12/25 00:57:30;;;;;;;8.93;7.33;;;8.70;95.30;;;;;;5069864;28;20669;-51
2020/12/25 00:59:57;;;;;;;8.60;7.33;;;8.70;95.20;;;;;;5071271;28;20679;-50
2020/12/25 01:02:28;;;;;;;11.73;8.40;;;8.70;95.30;;;;;;5052856;28;20679;-50
2020/12/25 01:04:55;;;;;;;10.40;7.97;;;8.70;95.70;;;;;;5070678;28;20689;-51
2020/12/25 01:07:22;;;;;;;9.20;7.70;;;8.70;95.60;;;;;;5070797;28;20660;-51
2020/12/25 01:09:49;;;;;;;8.57;7.10;;;8.70;95.40;;;;;;5071031;28;20635;-51
2020/12/25 01:12:15;;;;;;;8.33;7.43;;;8.60;95.30;;;;;;5071133;28;20632;-51
2020/12/25 01:14:42;;;;;;;11.20;7.80;;;8.60;95.50;;;;;;5070296;28;20624;-51
2020/12/25 01:17:09;;;;;;;11.30;8.20;;;8.60;95.50;;;;;;5070456;28;21228;-51
2020/12/25 01:19:36;;;;;;;11.10;8.80;;;8.70;95.70;;;;;;5070581;28;20625;-51
2020/12/25 01:22:03;;;;;;;16.53;10.00;;;8.70;95.70;;;;;;5070509;28;21271;-50
2020/12/25 01:24:30;;;;;;;10.80;8.37;;;8.70;95.70;;;;;;5070335;28;20685;-51
2020/12/25 01:26:57;;;;;;;10.27;9.27;;;8.70;95.60;;;;;;5070631;28;20699;-50
2020/12/25 01:29:23;;;;;;;8.27;7.20;;;8.80;95.50;;;;;;5070365;28;20996;-50
2020/12/25 01:31:50;;;;;;;9.37;8.47;;;8.80;95.50;;;;;;5070028;28;20669;-50
2020/12/25 01:34:17;;;;;;;9.07;7.40;;;8.90;95.40;;;;;;5052266;28;20631;-50
2020/12/25 01:36:45;;;;;;;8.83;8.03;;;8.80;95.40;;;;;;5070351;28;20668;-51
2020/12/25 01:39:11;;;;;;;9.00;7.57;;;8.90;95.70;;;;;;5052270;28;20919;-52
2020/12/25 01:41:38;;;;;;;8.27;6.57;;;8.90;95.30;;;;;;5069148;28;20633;-52
2020/12/25 01:44:05;;;;;;;9.10;7.20;;;8.90;95.10;;;;;;5051831;28;20621;-52
2020/12/25 01:46:31;;;;;;;9.27;6.70;;;8.90;95.10;;;;;;5070295;28;20641;-53
2020/12/25 01:48:58;;;;;;;7.20;6.50;;;8.90;95.00;;;;;;5070012;28;20664;-52
2020/12/25 01:51:25;;;;;;;7.70;6.90;;;8.90;95.00;;;;;;5070202;28;20999;-52
2020/12/25 01:53:52;;;;;;;7.53;6.93;;;8.90;95.10;;;;;;5070149;28;21007;-52
2020/12/25 01:56:19;;;;;;;6.73;6.10;;;8.90;95.10;;;;;;5069764;28;21141;-53
2020/12/25 01:58:46;;;;;;;7.07;6.40;;;8.90;95.10;;;;;;5069733;28;20669;-52
2020/12/25 02:01:13;;;;;;;6.17;5.60;;;8.90;95.00;;;;;;5070068;28;20657;-52
2020/12/25 02:03:39;;;;;;;6.60;6.00;;;8.90;95.00;;;;;;5070165;28;20617;-52
2020/12/25 02:06:06;;;;;;;9.67;6.93;;;8.90;94.90;;;;;;5051732;28;20980;-51
2020/12/25 02:08:33;;;;;;;7.20;6.50;;;8.90;94.90;;;;;;5069548;28;20648;-51
2020/12/25 02:11:01;;;;;;;6.30;5.80;;;8.90;95.00;;;;;;5069962;28;20689;-51
2020/12/25 02:13:29;;;;;;;6.77;6.13;;;8.90;95.20;;;;;;5051544;28;20698;-51
2020/12/25 02:15:55;;;;;;;8.37;6.50;;;9.00;95.30;;;;;;5069741;28;20988;-50
2020/12/25 02:18:22;;;;;;;8.90;6.43;;;8.90;95.10;;;;;;5069440;28;20653;-51
2020/12/25 02:20:49;;;;;;;8.67;6.20;;;9.00;95.20;;;;;;5069557;28;20751;-51
2020/12/25 02:23:16;;;;;;;11.23;6.90;;;9.00;95.10;;;;;;5069846;28;21175;-51
2020/12/25 02:25:43;;;;;;;11.23;7.57;;;9.00;95.10;;;;;;5069449;28;20698;-50
2020/12/25 02:28:10;;;;;;;6.77;6.17;;;9.00;95.00;;;;;;5069181;28;20641;-51
2020/12/25 02:30:36;;;;;;;8.63;6.90;;;9.00;94.90;;;;;;5069584;28;20620;-51
2020/12/25 02:33:03;;;;;;;7.90;7.00;;;9.00;94.70;;;;;;5069351;28;20643;-50
2020/12/25 02:35:30;;;;;;;12.07;7.47;;;9.10;94.80;;;;;;5069657;28;20629;-51
2020/12/25 02:37:57;;;;;;;8.50;6.80;;;9.00;94.80;;;;;;5069354;28;20669;-50
2020/12/25 02:40:24;;;;;;;8.40;7.40;;;9.00;94.50;;;;;;5069365;28;20632;-51
2020/12/25 02:42:51;;;;;;;8.83;5.67;;;9.10;94.40;;;;;;5069430;28;20636;-50
2020/12/25 02:45:18;;;;;;;9.33;6.80;;;9.00;94.30;;;;;;5069354;28;20633;-51
2020/12/25 02:47:44;;;;;;;12.30;7.60;;;9.00;94.30;;;;;;5068933;28;20639;-51
2020/12/25 02:50:11;;;;;;;10.37;7.40;;;9.00;94.30;;;;;;5069567;28;20822;-51
2020/12/25 02:52:38;;;;;;;12.53;6.50;;;9.00;94.30;;;;;;5069314;28;21233;-50
2020/12/25 02:55:05;;;;;;;7.77;5.90;;;8.90;94.40;;;;;;5069280;28;20624;-50
2020/12/25 02:57:32;;;;;;;10.53;6.97;;;9.00;94.40;;;;;;5069248;28;20699;-51
2020/12/25 02:59:59;;;;;;;7.80;5.30;;;8.90;94.40;;;;;;5069697;28;20625;-51
2020/12/25 03:02:26;;;;;;;6.40;5.80;;;9.00;94.50;;;;;;5069305;28;20999;-51
2020/12/25 03:04:52;;;;;;;5.90;5.40;;;9.00;94.40;;;;;;5069350;28;21246;-51
2020/12/25 03:07:19;;;;;;;6.17;5.20;;;9.00;94.20;;;;;;5069328;28;20660;-51
2020/12/25 03:09:46;;;;;;;6.27;5.60;;;9.00;94.10;;;;;;5068749;28;20738;-51
2020/12/25 03:12:12;;;;;;;7.83;6.43;;;8.90;94.00;;;;;;5069434;28;20632;-50
2020/12/25 03:14:40;;;;;;;8.87;5.90;;;9.00;93.90;;;;;;5069212;28;20666;-50
2020/12/25 03:17:07;;;;;;;5.87;5.27;;;8.90;93.70;;;;;;5069084;28;20761;-50
2020/12/25 03:19:33;;;;;;;7.77;6.07;;;9.00;93.80;;;;;;5069502;28;21253;-51
2020/12/25 03:22:00;;;;;;;6.53;5.20;;;9.00;93.80;;;;;;5072599;28;20702;-50
2020/12/25 03:24:27;;;;;;;7.53;5.93;;;9.00;93.90;;;;;;5072677;28;20629;-51
2020/12/25 03:26:54;;;;;;;6.70;6.00;;;9.00;93.90;;;;;;5054922;28;21208;-51
2020/12/25 03:29:20;;;;;;;5.80;4.40;;;9.00;94.00;;;;;;5072771;28;21205;-51
2020/12/25 03:31:48;;;;;;;6.03;5.17;;;9.00;94.00;;;;;;5072879;28;20751;-50
2020/12/25 03:34:15;;;;;;;5.50;5.00;;;9.00;94.00;;;;;;5072749;28;20624;-51
2020/12/25 03:36:41;;;;;;;7.10;4.80;;;9.00;93.90;;;;;;5072931;28;20689;-51
2020/12/25 03:39:08;;;;;;;7.80;4.87;;;9.00;93.70;;;;;;5072656;28;20738;-51
2020/12/25 03:41:35;;;;;;;5.47;4.53;;;9.00;93.50;;;;;;5071638;28;20690;-51
2020/12/25 03:44:02;;;;;;;6.13;4.40;;;9.00;93.50;;;;;;5072457;28;20621;-51
2020/12/25 03:46:33;;;;;;;5.10;4.60;;;9.00;93.50;;;;;;5072332;28;20678;-51
2020/12/25 03:49:01;;;;;;;5.70;4.00;;;9.00;93.80;;;;;;5072566;28;20656;-51
2020/12/25 03:51:27;;;;;;;8.33;5.80;;;9.00;93.80;;;;;;5072544;28;21246;-51
2020/12/25 03:53:54;;;;;;;6.07;5.47;;;9.00;93.50;;;;;;5072476;28;20649;-51
2020/12/25 03:56:21;;;;;;;4.70;4.03;;;9.00;93.40;;;;;;5072253;28;20626;-50
2020/12/25 03:58:47;;;;;;;4.53;4.13;;;9.00;93.40;;;;;;5071823;28;20665;-51
2020/12/25 04:01:14;;;;;;;5.60;5.10;;;9.00;93.50;;;;;;5071456;28;20984;-51
2020/12/25 04:03:41;;;;;;;6.27;4.17;;;9.00;93.60;;;;;;5071877;28;20678;-51
2020/12/25 04:06:09;;;;;;;8.00;4.50;;;9.00;93.50;;;;;;5072354;28;20694;-50
2020/12/25 04:08:35;;;;;;;4.10;3.80;;;9.00;93.40;;;;;;5072014;28;20958;-51
2020/12/25 04:11:02;;;;;;;3.63;3.33;;;9.00;93.30;;;;;;5053915;28;20679;-51
2020/12/25 04:13:29;;;;;;;4.17;3.43;;;9.00;93.20;;;;;;5071972;28;20633;-51
2020/12/25 04:15:59;;;;;;;3.73;3.30;;;9.00;92.90;;;;;;5071979;28;20744;-48
2020/12/25 04:18:26;;;;;;;4.40;3.97;;;8.90;92.60;;;;;;5071431;28;21033;-51
2020/12/25 04:20:53;;;;;;;4.00;3.60;;;8.90;92.70;;;;;;5071875;28;20618;-50
2020/12/25 04:23:20;;;;;;;4.60;4.20;;;8.90;92.60;;;;;;5072070;28;20694;-51
2020/12/25 04:25:47;;;;;;;4.07;3.77;;;8.90;92.50;;;;;;5071756;28;20683;-51
2020/12/25 04:28:14;;;;;;;4.20;3.60;;;8.90;92.50;;;;;;5071530;28;20693;-51
2020/12/25 04:30:40;;;;;;;6.20;3.50;;;8.90;92.70;;;;;;5071519;28;20707;-51
2020/12/25 04:33:07;;;;;;;4.47;3.20;;;8.90;92.60;;;;;;5071576;28;20690;-51
2020/12/25 04:35:34;;;;;;;5.17;3.93;;;8.90;92.50;;;;;;5072020;28;20617;-51
2020/12/25 04:38:01;;;;;;;3.40;3.00;;;8.90;92.20;;;;;;5071507;28;20668;-51
2020/12/25 04:40:28;;;;;;;3.97;3.10;;;8.90;92.20;;;;;;5071643;28;20725;-51
2020/12/25 04:42:55;;;;;;;3.87;3.47;;;8.80;92.20;;;;;;5071241;28;20671;-51
2020/12/25 04:45:22;;;;;;;3.30;3.00;;;8.80;92.20;;;;;;5071559;28;20701;-51
2020/12/25 04:47:49;;;;;;;3.70;3.17;;;8.80;92.40;;;;;;5071187;28;20657;-51
2020/12/25 04:50:15;;;;;;;5.00;3.70;;;8.80;92.60;;;;;;5071599;28;20624;-51
2020/12/25 04:52:42;;;;;;;6.30;4.07;;;8.90;92.60;;;;;;5071221;28;20663;-51
2020/12/25 04:55:09;;;;;;;4.50;4.10;;;8.90;92.50;;;;;;5071285;28;20700;-51
2020/12/25 04:57:36;;;;;;;3.10;2.80;;;8.80;92.30;;;;;;5052737;28;20653;-51
2020/12/25 05:00:15;;;;;;;4.07;3.30;;;8.90;92.50;;;;;;5071247;28;20740;-50
2020/12/25 05:02:42;;;;;;;4.47;3.53;;;8.90;92.60;;;;;;5071182;28;20625;-50
2020/12/25 05:05:09;;;;;;;6.97;3.53;;;8.90;92.40;;;;;;5052769;28;20647;-51
2020/12/25 05:07:37;;;;;;;4.00;3.60;;;8.80;92.40;;;;;;5071170;28;21181;-50
2020/12/25 05:10:06;;;;;;;3.90;3.60;;;8.90;92.40;;;;;;5070903;28;20628;-51
2020/12/25 05:12:34;;;;;;;3.63;3.30;;;8.80;92.20;;;;;;5052705;28;20698;-51
2020/12/25 05:15:06;;;;;;;3.63;3.30;;;8.80;92.40;;;;;;5070712;28;20660;-51
2020/12/25 05:17:32;;;;;;;3.23;2.93;;;8.90;92.40;;;;;;5070963;28;20714;-53
2020/12/25 05:19:59;;;;;;;2.90;2.70;;;8.80;92.30;;;;;;5070733;28;20621;-52
2020/12/25 05:22:26;;;;;;;4.47;3.20;;;8.80;92.20;;;;;;5070416;28;20624;-53
2020/12/25 05:24:53;;;;;;;5.40;3.50;;;8.90;92.30;;;;;;5070443;28;21202;-53
2020/12/25 05:27:19;;;;;;;4.83;3.37;;;8.80;92.30;;;;;;5070429;28;20734;-52
2020/12/25 05:29:47;;;;;;;3.43;3.13;;;8.80;92.50;;;;;;5070076;28;21022;-53
2020/12/25 05:32:15;;;;;;;3.40;3.00;;;8.80;92.40;;;;;;5070249;28;20628;-52
2020/12/25 05:34:43;;;;;;;3.67;3.30;;;8.80;92.30;;;;;;5070670;28;20710;-50
2020/12/25 05:37:09;;;;;;;3.73;2.53;;;8.80;92.50;;;;;;5070060;28;20690;-51
2020/12/25 05:39:37;;;;;;;3.30;3.07;;;8.80;92.60;;;;;;5070227;28;20682;-50
2020/12/25 05:42:05;;;;;;;3.80;2.50;;;8.80;92.20;;;;;;5069452;28;20793;-51
2020/12/25 05:44:39;;;;;;;2.70;2.50;;;8.80;92.00;;;;;;5069629;28;20789;-50
2020/12/25 05:47:06;;;;;;;3.77;2.70;;;8.80;92.20;;;;;;5070290;28;20632;-51
2020/12/25 05:49:34;;;;;;;2.83;2.40;;;8.80;92.20;;;;;;5070232;28;20643;-50
2020/12/25 05:52:01;;;;;;;3.43;2.97;;;8.80;92.40;;;;;;5069664;28;20633;-50
2020/12/25 05:54:28;;;;;;;4.60;4.20;;;8.80;92.30;;;;;;5069578;28;20625;-51
2020/12/25 05:56:55;;;;;;;3.07;2.60;;;8.80;92.20;;;;;;5069688;28;20633;-50
2020/12/25 05:59:24;;;;;;;2.80;2.60;;;8.80;92.20;;;;;;5070095;28;20752;-50
2020/12/25 06:01:53;;;;;;;4.30;3.10;;;8.80;92.20;;;;;;5069643;28;20632;-51
2020/12/25 06:04:23;;;;;;;3.17;2.87;;;8.70;92.10;;;;;;5070492;28;20686;-50
2020/12/25 06:06:51;;;;;;;3.00;2.70;;;8.70;92.10;;;;;;5069922;28;20676;-50
2020/12/25 06:09:18;;;;;;;3.70;2.57;;;8.70;92.10;;;;;;5070032;28;20639;-50
2020/12/25 06:11:47;;;;;;;2.37;2.20;;;8.70;92.10;;;;;;5069935;28;20698;-50
2020/12/25 06:14:14;;;;;;;7.43;3.50;;;8.70;92.00;;;;;;5069783;28;20989;-51
2020/12/25 06:16:43;;;;;;;5.57;3.50;;;8.80;91.90;;;;;;5070069;28;21060;-50
2020/12/25 06:19:15;;;;;;;3.70;2.70;;;8.70;91.80;;;;;;5069462;28;20733;-51
2020/12/25 06:21:45;;;;;;;3.37;3.00;;;8.70;91.80;;;;;;5069990;28;20636;-50
2020/12/25 06:24:14;;;;;;;2.97;2.67;;;8.70;91.60;;;;;;5069387;28;20620;-50
2020/12/25 06:26:41;;;;;;;4.03;2.60;;;8.70;91.60;;;;;;5069815;28;21176;-50
2020/12/25 06:29:09;;;;;;;3.80;3.20;;;8.70;91.60;;;;;;5069967;28;21177;-51
2020/12/25 06:31:41;;;;;;;2.90;2.60;;;8.70;91.50;;;;;;5069467;28;20976;-50
2020/12/25 06:34:07;;;;;;;2.67;2.47;;;8.70;91.30;;;;;;5069569;28;21024;-51
2020/12/25 06:36:34;;;;;;;2.87;2.67;;;8.60;91.10;;;;;;5069832;28;20654;-50
2020/12/25 06:39:03;;;;;;;4.10;3.73;;;8.60;91.00;;;;;;5069376;28;20807;-50
2020/12/25 06:41:33;;;;;;;7.63;3.90;;;8.60;90.90;;;;;;5069556;28;21042;-51
2020/12/25 06:43:59;;;;;;;5.33;3.87;;;8.60;90.80;;;;;;5069876;28;20957;-51
2020/12/25 06:46:29;;;;;;;5.47;3.33;;;8.60;90.80;;;;;;5069624;28;20624;-51
2020/12/25 06:49:03;;;;;;;6.33;4.50;;;8.60;90.70;;;;;;5069600;28;20706;-51
2020/12/25 06:51:30;;;;;;;7.93;4.23;;;8.60;90.80;;;;;;5069560;28;20628;-50
2020/12/25 06:53:57;;;;;;;8.47;4.40;;;8.50;90.60;;;;;;5069331;28;20641;-50
2020/12/25 06:56:23;;;;;;;7.37;5.07;;;8.50;90.50;;;;;;5072116;28;20628;-51
2020/12/25 06:58:52;;;;;;;6.57;4.73;;;8.50;90.50;;;;;;5072998;28;20732;-50
2020/12/25 07:01:34;;;;;;;11.97;4.90;;;8.50;90.60;;;;;;5073556;28;20636;-50
2020/12/25 07:04:00;;;;;;;9.00;5.43;;;8.50;90.50;;;;;;5073545;28;20621;-50
2020/12/25 07:06:29;;;;;;;11.77;5.10;;;8.50;90.60;;;;;;5073726;28;21125;-50
2020/12/25 07:08:56;;;;;;;3.83;3.43;;;8.50;90.50;;;;;;5072920;28;20647;-50
2020/12/25 07:11:23;;;;;;;8.07;3.77;;;8.50;90.50;;;;;;5073126;28;21027;-51
2020/12/25 07:13:50;;;;;;;5.80;3.80;;;8.50;90.50;;;;;;5073386;28;20778;-50
2020/12/25 07:16:17;;;;;;;5.60;3.87;;;8.40;90.50;;;;;;5073028;28;20631;-50
2020/12/25 07:18:44;;;;;;;5.63;4.13;;;8.40;90.60;;;;;;5072973;28;20664;-50
2020/12/25 07:21:11;;;;;;;9.93;5.20;;;8.40;90.60;;;;;;5073130;28;20640;-50
2020/12/25 07:23:44;;;;;;;9.03;4.30;;;8.40;90.60;;;;;;5072924;28;20661;-50
2020/12/25 07:26:11;;;;;;;8.93;3.97;;;8.40;90.80;;;;;;5072722;28;20636;-50
2020/12/25 07:28:38;;;;;;;5.03;3.93;;;8.40;90.70;;;;;;5055090;28;20664;-50
2020/12/25 07:31:06;;;;;;;13.37;5.80;;;8.40;90.70;;;;;;5072588;28;20677;-51
2020/12/25 07:33:33;;;;;;;13.30;6.43;;;8.40;90.90;;;;;;5073236;28;20667;-49
2020/12/25 07:35:59;;;;;;;15.07;7.50;;;8.40;90.80;;;;;;5072706;28;20676;-50
2020/12/25 07:38:26;;;;;;;13.67;6.90;;;8.40;90.80;;;;;;5072769;28;20829;-50
2020/12/25 07:40:53;;;;;;;14.23;7.07;;;8.40;90.70;;;;;;5072603;28;20992;-49
2020/12/25 07:43:20;;;;;;;12.03;7.07;;;8.40;90.80;;;;;;5054356;28;20938;-50
2020/12/25 07:45:47;;;;;;;10.80;5.50;;;8.40;90.70;;;;;;5072762;28;20632;-49
2020/12/25 07:48:14;;;;;;;13.27;6.40;;;8.40;90.70;;;;;;5073255;28;20664;-50
2020/12/25 07:50:42;;;;;;;9.37;5.03;;;8.40;90.80;;;;;;5072740;28;20628;-50
2020/12/25 07:53:09;;;;;;;7.37;5.33;;;8.40;90.80;;;;;;5072761;28;20779;-49
2020/12/25 07:55:36;;;;;;;7.73;5.40;;;8.40;90.60;;;;;;5072621;28;20651;-49
2020/12/25 07:58:03;;;;;;;5.00;3.87;;;8.40;90.60;;;;;;5072417;28;20656;-49
2020/12/25 08:00:29;;;;;;;5.30;3.73;;;8.40;90.70;;;;;;5072386;28;20681;-50
2020/12/25 08:02:57;;;;;;;9.50;4.90;;;8.40;90.60;;;;;;5072227;28;20697;-50
2020/12/25 08:05:28;;;;;;;4.50;3.80;;;8.40;90.50;;;;;;5072209;28;20750;-50
2020/12/25 08:07:55;;;;;;;4.20;3.80;;;8.40;90.20;;;;;;5071744;28;20721;-49
2020/12/25 08:10:22;;;;;;;5.43;4.40;;;8.40;90.20;;;;;;5071926;28;20703;-49
2020/12/25 08:12:49;;;;;;;5.90;5.30;;;8.40;90.20;;;;;;5072107;28;20661;-50
2020/12/25 08:15:17;;;;;;;5.07;4.53;;;8.40;90.10;;;;;;5072272;28;20651;-49
2020/12/25 08:17:45;;;;;;;9.97;6.00;;;8.40;90.00;;;;;;5072037;28;20659;-49
2020/12/25 08:20:12;;;;;;;10.20;5.70;;;8.40;89.70;;;;;;5071907;28;20657;-50
2020/12/25 08:22:39;;;;;;;7.77;4.67;;;8.30;89.70;;;;;;5072365;28;20624;-49
2020/12/25 08:25:06;;;;;;;5.13;3.87;;;8.40;90.10;;;;;;5071766;28;20632;-49
2020/12/25 08:27:33;;;;;;;5.57;4.77;;;8.40;88.60;;;;;;5053523;28;21056;-50
2020/12/25 08:30:01;;;;;;;3.67;3.37;;;8.40;88.40;;;;;;5053719;28;21187;-50
2020/12/25 08:32:29;;;;;;;4.50;4.00;;;8.40;87.60;;;;;;5071325;28;20628;-52
2020/12/25 08:35:12;;;;;;;3.83;3.53;;;8.40;87.10;;;;;;5071669;28;20639;-51
2020/12/25 08:37:40;;;;;;;4.30;3.63;;;8.40;87.10;;;;;;5071692;28;20728;-52
2020/12/25 08:40:14;;;;;;;5.03;4.10;;;8.40;86.90;;;;;;5070106;28;20794;-51
2020/12/25 08:42:40;;;;;;;4.10;3.70;;;8.40;87.40;;;;;;5071577;28;20658;-51
2020/12/25 08:45:07;;;;;;;6.47;3.90;;;8.40;87.30;;;;;;5071564;28;21028;-52
2020/12/25 08:47:34;;;;;;;4.33;3.93;;;8.40;87.20;;;;;;5071205;28;20722;-51
2020/12/25 08:50:01;;;;;;;5.00;4.23;;;8.40;87.20;;;;;;5071371;28;20636;-52
2020/12/25 08:52:28;;;;;;;5.13;3.47;;;8.40;86.60;;;;;;5071354;28;20628;-52
2020/12/25 08:54:56;;;;;;;4.60;3.93;;;8.40;85.70;;;;;;5071415;28;20632;-52
2020/12/25 08:57:22;;;;;;;5.30;4.13;;;8.40;85.60;;;;;;5071025;28;20705;-52
2020/12/25 09:00:05;;;;;;;6.93;4.77;;;8.50;85.30;;;;;;5071353;28;21169;-52
2020/12/25 09:02:32;;;;;;;9.23;5.37;;;8.50;85.00;;;;;;5071212;28;20616;-52
2020/12/25 09:04:59;;;;;;;5.13;3.33;;;8.50;85.00;;;;;;5071014;28;20627;-52
2020/12/25 09:07:25;;;;;;;5.50;4.20;;;8.50;84.90;;;;;;5070724;28;20643;-52
2020/12/25 09:09:52;;;;;;;7.93;4.43;;;8.50;84.40;;;;;;5071373;28;20686;-50
2020/12/25 09:12:20;;;;;;;8.60;4.00;;;8.50;84.40;;;;;;5070928;28;20632;-50
2020/12/25 09:14:47;;;;;;;4.60;3.13;;;8.60;84.40;;;;;;5070830;28;20654;-50
2020/12/25 09:17:13;;;;;;;3.70;3.30;;;8.60;83.80;;;;;;5070427;28;21080;-50
2020/12/25 09:19:40;;;;;;;6.57;4.00;;;8.60;83.10;;;;;;5070133;28;20657;-50
2020/12/25 09:22:07;;;;;;;4.40;3.33;;;8.60;82.60;;;;;;5070689;28;20694;-50
2020/12/25 09:24:33;;;;;;;5.37;4.40;;;8.50;82.00;;;;;;5070387;28;20689;-50
2020/12/25 09:27:00;;;;;;;3.17;2.87;;;8.60;81.90;;;;;;5070319;28;20667;-50
2020/12/25 09:29:28;;;;;;;3.87;3.57;;;8.60;81.00;;;;;;5070893;28;21196;-52
2020/12/25 09:31:54;;;;;;;2.73;2.53;;;8.60;79.90;;;;;;5070682;28;20697;-51
2020/12/25 09:34:21;;;;;;;2.40;2.20;;;8.60;79.60;;;;;;5070546;28;20692;-50
2020/12/25 09:36:48;;;;;;;2.33;2.13;;;8.60;78.80;;;;;;5070308;28;20652;-50
2020/12/25 09:39:15;;;;;;;2.90;2.70;;;8.50;77.80;;;;;;5070299;28;20660;-51
2020/12/25 09:41:41;;;;;;;2.83;2.63;;;8.50;77.50;;;;;;5070458;28;20625;-50
2020/12/25 09:44:08;;;;;;;3.13;2.43;;;8.50;77.60;;;;;;5070291;28;20743;-49
2020/12/25 09:46:36;;;;;;;3.10;2.40;;;8.50;77.80;;;;;;5070177;28;20733;-50
2020/12/25 09:49:02;;;;;;;6.77;3.27;;;8.50;77.60;;;;;;5070183;28;20707;-51
2020/12/25 09:51:29;;;;;;;2.83;2.30;;;8.50;77.30;;;;;;5070037;28;20637;-50
2020/12/25 09:53:56;;;;;;;2.80;2.30;;;8.50;75.70;;;;;;5070151;28;21182;-52
2020/12/25 09:56:23;;;;;;;3.50;2.70;;;8.60;76.40;;;;;;5069892;28;20624;-52
2020/12/25 09:58:49;;;;;;;3.20;3.00;;;8.60;76.20;;;;;;5070029;28;21036;-52
2020/12/25 10:01:16;;;;;;;3.10;2.80;;;8.60;74.90;;;;;;5070404;28;21028;-50
2020/12/25 10:03:44;;;;;;;3.30;2.00;;;8.70;75.00;;;;;;5070137;28;20654;-50
2020/12/25 10:06:11;;;;;;;2.90;2.70;;;8.70;74.80;;;;;;5070084;28;20677;-51
2020/12/25 10:08:37;;;;;;;2.73;2.47;;;8.80;74.90;;;;;;5069762;28;20657;-52
2020/12/25 10:11:04;;;;;;;2.87;2.67;;;8.90;74.70;;;;;;5069946;28;20697;-51
2020/12/25 10:13:31;;;;;;;5.27;2.60;;;9.00;75.60;;;;;;5070329;28;20637;-52
2020/12/25 10:15:58;;;;;;;3.10;2.80;;;9.20;75.00;;;;;;5070139;28;20698;-52
2020/12/25 10:18:25;;;;;;;4.43;3.30;;;9.30;73.80;;;;;;5069502;28;20691;-51
2020/12/25 10:20:52;;;;;;;3.43;2.57;;;9.40;73.90;;;;;;5070152;28;21357;-51
2020/12/25 10:23:19;;;;;;;2.80;2.60;;;9.50;72.90;;;;;;5069512;28;21027;-51
2020/12/25 10:25:46;;;;;;;2.93;2.73;;;9.50;71.10;;;;;;5070214;28;20621;-51
2020/12/25 10:28:13;;;;;;;2.77;2.57;;;9.40;70.80;;;;;;5069509;28;21032;-52
2020/12/25 10:30:40;;;;;;;2.37;2.07;;;9.30;70.80;;;;;;5069399;28;20612;-52
2020/12/25 10:33:06;;;;;;;3.50;3.00;;;9.30;71.00;;;;;;5069516;28;20640;-52
2020/12/25 10:35:33;;;;;;;3.00;2.80;;;9.20;71.60;;;;;;5069628;28;20694;-52
2020/12/25 10:38:01;;;;;;;5.70;3.83;;;9.20;72.20;;;;;;5069386;28;20649;-52
2020/12/25 10:40:27;;;;;;;5.10;3.47;;;9.20;73.00;;;;;;5070108;28;20649;-52
2020/12/25 10:42:54;;;;;;;2.50;2.30;;;9.30;73.50;;;;;;5051980;28;20633;-52
2020/12/25 10:45:21;;;;;;;3.10;2.43;;;9.50;72.20;;;;;;5070079;28;20637;-51
2020/12/25 10:47:48;;;;;;;4.27;2.57;;;9.70;70.10;;;;;;5069773;28;21223;-52
2020/12/25 10:50:14;;;;;;;3.10;2.70;;;9.80;69.60;;;;;;5069873;28;20683;-52
2020/12/25 10:52:41;;;;;;;4.93;3.60;;;10.00;68.10;;;;;;5069892;28;20640;-50
2020/12/25 10:55:09;;;;;;;4.77;2.53;;;10.00;66.70;;;;;;5069738;28;20724;-50
2020/12/25 10:57:35;;;;;;;2.37;2.17;;;10.00;65.40;;;;;;5068780;28;20726;-50
2020/12/25 11:00:02;;;;;;;2.43;2.23;;;10.10;66.10;;;;;;5068999;28;20765;-50
2020/12/25 11:02:29;;;;;;;3.83;3.33;;;10.10;65.90;;;;;;5069223;28;20670;-50
2020/12/25 11:04:56;;;;;;;5.60;3.10;;;10.00;64.80;;;;;;5069490;28;20634;-50
2020/12/25 11:07:23;;;;;;;3.00;2.67;;;9.90;65.50;;;;;;5069535;28;20678;-50
2020/12/25 11:09:49;;;;;;;4.50;3.10;;;9.90;65.20;;;;;;5069285;28;20985;-51
2020/12/25 11:12:17;;;;;;;2.73;2.33;;;9.80;65.90;;;;;;5069331;28;20682;-50
2020/12/25 11:14:44;;;;;;;2.70;2.50;;;9.90;66.90;;;;;;5069404;28;20744;-50
2020/12/25 11:17:12;;;;;;;2.70;2.50;;;9.90;67.10;;;;;;5069207;28;21037;-51
2020/12/25 11:19:39;;;;;;;2.70;2.10;;;9.90;66.90;;;;;;5069567;28;20719;-50
2020/12/25 11:22:06;;;;;;;2.00;1.80;;;9.90;65.10;;;;;;5069523;28;20637;-50
2020/12/25 11:24:33;;;;;;;2.50;2.30;;;9.90;64.90;;;;;;5068870;28;20621;-50
2020/12/25 11:26:59;;;;;;;4.63;3.40;;;9.80;64.60;;;;;;5068982;28;20651;-51
2020/12/25 11:29:27;;;;;;;4.77;3.70;;;9.70;64.80;;;;;;5069178;28;20621;-51
2020/12/25 11:31:54;;;;;;;3.43;3.13;;;9.70;65.40;;;;;;5069040;28;20621;-52
2020/12/25 11:34:20;;;;;;;4.10;2.80;;;9.80;65.20;;;;;;5068773;28;20621;-52
2020/12/25 11:36:47;;;;;;;2.73;2.53;;;10.20;63.30;;;;;;5068879;28;20983;-52
2020/12/25 11:39:14;;;;;;;3.37;2.37;;;10.70;60.50;;;;;;5068953;28;20679;-52
2020/12/25 11:41:41;;;;;;;4.43;2.43;;;11.20;58.80;;;;;;5070187;28;20686;-52
2020/12/25 11:44:07;;;;;;;2.83;2.20;;;11.60;57.30;;;;;;5072453;28;20651;-52
2020/12/25 11:46:35;;;;;;;2.97;2.10;;;12.00;56.00;;;;;;5072480;28;20617;-52
2020/12/25 11:49:03;;;;;;;5.40;2.97;;;12.30;55.20;;;;;;5072463;28;20649;-52
2020/12/25 11:51:31;;;;;;;2.47;2.13;;;12.80;54.40;;;;;;5071584;28;21169;-52
2020/12/25 11:53:57;;;;;;;4.27;1.93;;;13.10;51.80;;;;;;5072384;28;21202;-51
2020/12/25 11:56:26;;;;;;;3.83;2.53;;;13.20;50.00;;;;;;5072770;28;20732;-52
2020/12/25 11:58:52;;;;;;;2.47;2.27;;;12.90;49.70;;;;;;5072001;28;20730;-52
2020/12/25 12:01:19;;;;;;;2.97;2.43;;;12.70;50.40;;;;;;5072403;28;21183;-52
2020/12/25 12:03:47;;;;;;;3.00;2.70;;;12.40;50.60;;;;;;5072217;28;20613;-52
2020/12/25 12:06:18;;;;;;;1.40;1.30;;;12.20;50.80;;;;;;5072242;28;20625;-52
2020/12/25 12:08:44;;;;;;;2.80;1.80;;;12.10;51.20;;;;;;5071949;28;20733;-52
2020/12/25 12:11:11;;;;;;;2.40;2.20;;;11.90;51.20;;;;;;5072351;28;20637;-52
2020/12/25 12:13:38;;;;;;;1.77;1.67;;;11.70;51.50;;;;;;5072185;28;20629;-52
2020/12/25 12:16:05;;;;;;;2.20;2.00;;;11.50;51.50;;;;;;5072166;28;20617;-52
2020/12/25 12:18:31;;;;;;;4.40;2.53;;;11.50;51.60;;;;;;5071369;28;21196;-52
2020/12/25 12:20:59;;;;;;;1.97;1.80;;;11.40;51.30;;;;;;5071620;28;20730;-52
2020/12/25 12:23:26;;;;;;;1.77;1.67;;;11.40;51.80;;;;;;5071692;28;20621;-51
2020/12/25 12:25:52;;;;;;;4.87;2.00;;;11.40;51.60;;;;;;5071967;28;21029;-53
2020/12/25 12:28:19;;;;;;;2.10;2.00;;;11.50;51.00;;;;;;5071599;28;20999;-53
2020/12/25 12:30:47;;;;;;;3.33;1.67;;;12.10;50.90;;;;;;5071359;28;20621;-52
2020/12/25 12:33:14;;;;;;;2.27;1.60;;;12.60;49.70;;;;;;5071339;28;21129;-52
2020/12/25 12:35:41;;;;;;;4.27;1.90;;;13.10;47.60;;;;;;5071485;28;20617;-52
2020/12/25 12:38:08;;;;;;;3.87;2.30;;;13.20;47.20;;;;;;5070959;28;20707;-52
2020/12/25 12:40:35;;;;;;;3.60;2.10;;;13.30;47.10;;;;;;5070852;28;20817;-52
2020/12/25 12:43:02;;;;;;;3.23;1.80;;;13.60;45.40;;;;;;5071207;28;20704;-52
2020/12/25 12:45:29;;;;;;;2.13;1.80;;;13.80;45.10;;;;;;5071353;28;20625;-50
2020/12/25 12:47:55;;;;;;;2.30;1.90;;;13.80;44.50;;;;;;5070871;28;20652;-51
2020/12/25 12:50:22;;;;;;;1.67;1.43;;;13.50;44.90;;;;;;5071138;28;20629;-50
2020/12/25 12:52:49;;;;;;;1.77;1.67;;;13.30;44.80;;;;;;5071060;28;21033;-51
2020/12/25 12:55:16;;;;;;;3.43;2.33;;;13.00;44.50;;;;;;5070985;28;20674;-50